ラロトンガ の空港の天気 - METARとTAF

ラロトンガ国際空港 ( NCRG / RAR ) - クック諸島 アバルア (ラロトンガ島)
飛行場実況気象(Metar)
観測時間05/28 00:00 CKT (05/28 10:00 UTC)
風向・風速東南東 1m/s
視程10km以上
天気現象
全天の4割程度の雲 雲底高度 1830m
全天の8割程度の雲 雲底高度 2130m
気温24℃
湿度89%
気圧1017hPa
METARNCRG 281000Z AUTO 12002KT 9999 SCT060/// BKN070/// 24/22 Q1017 RERA
過去の天気等 Google飛行場航空写真 Wunderground天気予報

過去48時間のMETAR

飛行場予報(TAF)
発表時間: 5/27 19:14 CKT (5/28 05:14 UTC)
予報対象時間: 27日20時 CKT ~ 28日20時 CKT
風向・風速東 3m/s
視程10km以上
少しの雲 雲底高度 1100m
TAF NCRG 280514Z 2806/2906 10005KT 9999 FEW036